sensor_id;sensor_type;location;lat;lon;timestamp;pressure;altitude;pressure_sealevel;temperature;humidity
12879;BME280;20617;49.476;10.986;2022-11-21T00:01:18;97329.03;;;5.57;100.00
12879;BME280;20617;49.476;10.986;2022-11-21T00:03:24;97327.25;;;5.59;100.00
12879;BME280;20617;49.476;10.986;2022-11-21T00:05:30;97328.94;;;5.60;100.00
12879;BME280;20617;49.476;10.986;2022-11-21T00:07:35;97325.41;;;5.62;100.00
12879;BME280;20617;49.476;10.986;2022-11-21T00:09:40;97330.38;;;5.67;100.00
12879;BME280;20617;49.476;10.986;2022-11-21T00:11:44;97335.22;;;5.76;100.00
12879;BME280;20617;49.476;10.986;2022-11-21T00:13:49;97327.34;;;5.79;100.00
12879;BME280;20617;49.476;10.986;2022-11-21T00:16:02;97321.16;;;5.83;100.00
12879;BME280;20617;49.476;10.986;2022-11-21T00:18:07;97322.53;;;5.94;100.00
12879;BME280;20617;49.476;10.986;2022-11-21T00:20:13;97314.09;;;5.88;100.00
12879;BME280;20617;49.476;10.986;2022-11-21T00:22:18;97307.97;;;5.91;100.00
12879;BME280;20617;49.476;10.986;2022-11-21T00:24:23;97314.19;;;5.85;100.00
12879;BME280;20617;49.476;10.986;2022-11-21T00:26:28;97307.34;;;5.84;100.00
12879;BME280;20617;49.476;10.986;2022-11-21T00:28:33;97301.44;;;5.81;100.00
12879;BME280;20617;49.476;10.986;2022-11-21T00:30:38;97308.41;;;5.79;100.00
12879;BME280;20617;49.476;10.986;2022-11-21T00:32:47;97307.34;;;5.84;100.00
12879;BME280;20617;49.476;10.986;2022-11-21T00:34:52;97301.16;;;5.88;100.00
12879;BME280;20617;49.476;10.986;2022-11-21T00:36:56;97294.22;;;5.90;100.00
12879;BME280;20617;49.476;10.986;2022-11-21T00:39:01;97295.03;;;5.91;100.00
12879;BME280;20617;49.476;10.986;2022-11-21T00:41:06;97302.91;;;5.88;100.00
12879;BME280;20617;49.476;10.986;2022-11-21T00:43:11;97304.59;;;5.89;100.00
12879;BME280;20617;49.476;10.986;2022-11-21T00:45:16;97305.81;;;5.79;100.00
12879;BME280;20617;49.476;10.986;2022-11-21T00:47:25;97305.19;;;5.74;100.00
12879;BME280;20617;49.476;10.986;2022-11-21T00:49:32;97308.13;;;5.86;100.00
12879;BME280;20617;49.476;10.986;2022-11-21T00:51:37;97304.94;;;5.80;100.00
12879;BME280;20617;49.476;10.986;2022-11-21T00:53:42;97298.72;;;5.85;100.00
12879;BME280;20617;49.476;10.986;2022-11-21T00:55:47;97299.31;;;5.92;100.00
12879;BME280;20617;49.476;10.986;2022-11-21T00:57:52;97305.53;;;5.86;100.00
12879;BME280;20617;49.476;10.986;2022-11-21T00:59:57;97302.13;;;5.86;100.00
12879;BME280;20617;49.476;10.986;2022-11-21T01:02:02;97289.94;;;5.89;100.00
12879;BME280;20617;49.476;10.986;2022-11-21T01:04:06;97285.28;;;5.99;100.00
12879;BME280;20617;49.476;10.986;2022-11-21T01:06:14;97285.03;;;6.05;100.00
12879;BME280;20617;49.476;10.986;2022-11-21T01:08:19;97277.16;;;6.08;100.00
12879;BME280;20617;49.476;10.986;2022-11-21T01:10:24;97277.94;;;6.10;100.00
12879;BME280;20617;49.476;10.986;2022-11-21T01:12:30;97278.69;;;6.14;100.00
12879;BME280;20617;49.476;10.986;2022-11-21T01:14:35;97265.75;;;6.14;100.00
12879;BME280;20617;49.476;10.986;2022-11-21T01:16:40;97266.22;;;6.24;100.00
12879;BME280;20617;49.476;10.986;2022-11-21T01:18:45;97267.75;;;6.28;100.00
12879;BME280;20617;49.476;10.986;2022-11-21T01:20:50;97268.53;;;6.30;100.00
12879;BME280;20617;49.476;10.986;2022-11-21T01:22:58;97266.66;;;6.33;100.00
12879;BME280;20617;49.476;10.986;2022-11-21T01:25:03;97270.81;;;6.38;100.00
12879;BME280;20617;49.476;10.986;2022-11-21T01:27:08;97270.69;;;6.41;100.00
12879;BME280;20617;49.476;10.986;2022-11-21T01:29:13;97268.53;;;6.30;100.00
12879;BME280;20617;49.476;10.986;2022-11-21T01:31:20;97270.28;;;6.29;100.00
12879;BME280;20617;49.476;10.986;2022-11-21T01:33:25;97271.00;;;6.33;100.00
12879;BME280;20617;49.476;10.986;2022-11-21T01:35:29;97272.78;;;6.31;100.00
12879;BME280;20617;49.476;10.986;2022-11-21T01:37:34;97273.78;;;6.28;100.00
12879;BME280;20617;49.476;10.986;2022-11-21T01:39:42;97269.13;;;6.37;100.00
12879;BME280;20617;49.476;10.986;2022-11-21T01:41:46;97277.78;;;6.35;100.00
12879;BME280;20617;49.476;10.986;2022-11-21T01:43:51;97284.88;;;6.30;100.00
12879;BME280;20617;49.476;10.986;2022-11-21T01:45:58;97289.50;;;6.22;100.00
12879;BME280;20617;49.476;10.986;2022-11-21T01:48:04;97282.50;;;6.26;100.00
12879;BME280;20617;49.476;10.986;2022-11-21T01:50:09;97280.50;;;6.32;100.00
12879;BME280;20617;49.476;10.986;2022-11-21T01:52:18;97281.47;;;6.30;100.00
12879;BME280;20617;49.476;10.986;2022-11-21T01:54:28;97271.09;;;6.31;100.00
12879;BME280;20617;49.476;10.986;2022-11-21T01:56:40;97271.09;;;6.31;100.00
12879;BME280;20617;49.476;10.986;2022-11-21T01:58:48;97276.38;;;6.28;100.00
12879;BME280;20617;49.476;10.986;2022-11-21T02:00:55;97270.09;;;6.34;100.00
12879;BME280;20617;49.476;10.986;2022-11-21T02:03:04;97277.84;;;6.34;100.00
12879;BME280;20617;49.476;10.986;2022-11-21T02:05:14;97281.22;;;6.36;100.00
12879;BME280;20617;49.476;10.986;2022-11-21T02:07:21;97269.22;;;6.35;100.00
12879;BME280;20617;49.476;10.986;2022-11-21T02:09:28;97275.25;;;6.34;100.00
12879;BME280;20617;49.476;10.986;2022-11-21T02:11:41;97280.25;;;6.39;100.00
12879;BME280;20617;49.476;10.986;2022-11-21T02:13:47;97271.66;;;6.38;100.00
12879;BME280;20617;49.476;10.986;2022-11-21T02:15:53;97274.25;;;6.38;100.00
12879;BME280;20617;49.476;10.986;2022-11-21T02:17:58;97269.06;;;6.38;100.00
12879;BME280;20617;49.476;10.986;2022-11-21T02:20:06;97273.34;;;6.39;100.00
12879;BME280;20617;49.476;10.986;2022-11-21T02:22:16;97277.50;;;6.43;100.00
12879;BME280;20617;49.476;10.986;2022-11-21T02:24:31;97270.31;;;6.50;100.00
12879;BME280;20617;49.476;10.986;2022-11-21T02:26:43;97261.63;;;6.51;100.00
12879;BME280;20617;49.476;10.986;2022-11-21T02:28:51;97269.47;;;6.49;100.00
12879;BME280;20617;49.476;10.986;2022-11-21T02:30:56;97266.81;;;6.51;100.00
12879;BME280;20617;49.476;10.986;2022-11-21T02:33:00;97258.31;;;6.49;100.00
12879;BME280;20617;49.476;10.986;2022-11-21T02:35:07;97270.22;;;6.51;100.00
12879;BME280;20617;49.476;10.986;2022-11-21T02:37:12;97273.81;;;6.49;100.00
12879;BME280;20617;49.476;10.986;2022-11-21T02:39:21;97265.84;;;6.53;100.00
12879;BME280;20617;49.476;10.986;2022-11-21T02:41:28;97258.94;;;6.54;100.00
12879;BME280;20617;49.476;10.986;2022-11-21T02:43:42;97262.69;;;6.47;100.00
12879;BME280;20617;49.476;10.986;2022-11-21T02:45:49;97261.97;;;6.43;100.00
12879;BME280;20617;49.476;10.986;2022-11-21T02:47:54;97259.81;;;6.32;100.00
12879;BME280;20617;49.476;10.986;2022-11-21T02:50:11;97265.97;;;6.30;100.00
12879;BME280;20617;49.476;10.986;2022-11-21T02:52:17;97265.66;;;6.38;100.00
12879;BME280;20617;49.476;10.986;2022-11-21T02:54:22;97271.47;;;6.43;100.00
12879;BME280;20617;49.476;10.986;2022-11-21T02:56:27;97261.19;;;6.41;100.00
12879;BME280;20617;49.476;10.986;2022-11-21T02:58:32;97271.38;;;6.24;100.00
12879;BME280;20617;49.476;10.986;2022-11-21T03:00:41;97274.34;;;6.15;100.00
12879;BME280;20617;49.476;10.986;2022-11-21T03:02:46;97271.88;;;6.11;100.00
12879;BME280;20617;49.476;10.986;2022-11-21T03:04:51;97277.75;;;6.15;100.00
12879;BME280;20617;49.476;10.986;2022-11-21T03:06:56;97281.56;;;6.06;100.00
12879;BME280;20617;49.476;10.986;2022-11-21T03:09:01;97281.44;;;6.09;100.00
12879;BME280;20617;49.476;10.986;2022-11-21T03:11:06;97282.81;;;6.18;100.00
12879;BME280;20617;49.476;10.986;2022-11-21T03:13:11;97283.47;;;6.23;100.00
12879;BME280;20617;49.476;10.986;2022-11-21T03:15:16;97292.75;;;6.27;100.00
12879;BME280;20617;49.476;10.986;2022-11-21T03:17:23;97280.56;;;6.31;100.00
12879;BME280;20617;49.476;10.986;2022-11-21T03:19:28;97284.75;;;6.33;100.00
12879;BME280;20617;49.476;10.986;2022-11-21T03:21:33;97275.09;;;6.39;100.00
12879;BME280;20617;49.476;10.986;2022-11-21T03:23:38;97266.38;;;6.41;100.00
12879;BME280;20617;49.476;10.986;2022-11-21T03:25:45;97263.13;;;6.36;100.00
12879;BME280;20617;49.476;10.986;2022-11-21T03:27:51;97252.91;;;6.33;100.00
12879;BME280;20617;49.476;10.986;2022-11-21T03:29:56;97253.88;;;6.30;100.00
12879;BME280;20617;49.476;10.986;2022-11-21T03:32:01;97252.91;;;6.33;100.00
12879;BME280;20617;49.476;10.986;2022-11-21T03:34:09;97250.97;;;6.38;100.00
12879;BME280;20617;49.476;10.986;2022-11-21T03:36:14;97251.38;;;6.29;100.00
12879;BME280;20617;49.476;10.986;2022-11-21T03:38:19;97250.28;;;6.34;100.00
12879;BME280;20617;49.476;10.986;2022-11-21T03:40:23;97244.00;;;6.40;100.00
12879;BME280;20617;49.476;10.986;2022-11-21T03:42:28;97241.09;;;6.48;100.00
12879;BME280;20617;49.476;10.986;2022-11-21T03:44:33;97236.56;;;6.53;100.00
12879;BME280;20617;49.476;10.986;2022-11-21T03:46:44;97237.53;;;6.50;100.00
12879;BME280;20617;49.476;10.986;2022-11-21T03:48:49;97235.09;;;6.47;100.00
12879;BME280;20617;49.476;10.986;2022-11-21T03:50:57;97229.91;;;6.47;100.00
12879;BME280;20617;49.476;10.986;2022-11-21T03:53:02;97230.03;;;6.44;100.00
12879;BME280;20617;49.476;10.986;2022-11-21T03:55:07;97236.56;;;6.32;100.00
12879;BME280;20617;49.476;10.986;2022-11-21T03:57:14;97232.81;;;6.40;100.00
12879;BME280;20617;49.476;10.986;2022-11-21T03:59:19;97237.13;;;6.39;100.00
12879;BME280;20617;49.476;10.986;2022-11-21T04:01:24;97227.06;;;6.33;100.00
12879;BME280;20617;49.476;10.986;2022-11-21T04:03:36;97234.63;;;6.38;100.00
12879;BME280;20617;49.476;10.986;2022-11-21T04:05:42;97235.47;;;6.38;100.00
12879;BME280;20617;49.476;10.986;2022-11-21T04:07:50;97225.19;;;6.37;100.00
12879;BME280;20617;49.476;10.986;2022-11-21T04:09:55;97230.19;;;6.41;100.00
12879;BME280;20617;49.476;10.986;2022-11-21T04:12:00;97228.50;;;6.40;100.00
12879;BME280;20617;49.476;10.986;2022-11-21T04:14:08;97222.59;;;6.37;100.00
12879;BME280;20617;49.476;10.986;2022-11-21T04:16:13;97215.75;;;6.35;100.00
12879;BME280;20617;49.476;10.986;2022-11-21T04:18:18;97209.63;;;6.38;100.00
12879;BME280;20617;49.476;10.986;2022-11-21T04:20:23;97217.50;;;6.35;100.00
12879;BME280;20617;49.476;10.986;2022-11-21T04:22:28;97213.22;;;6.34;100.00
12879;BME280;20617;49.476;10.986;2022-11-21T04:24:35;97216.47;;;6.39;100.00
12879;BME280;20617;49.476;10.986;2022-11-21T04:26:40;97224.31;;;6.38;100.00
12879;BME280;20617;49.476;10.986;2022-11-21T04:28:45;97216.69;;;6.34;100.00
12879;BME280;20617;49.476;10.986;2022-11-21T04:30:50;97218.41;;;6.34;100.00
12879;BME280;20617;49.476;10.986;2022-11-21T04:32:57;97216.81;;;6.31;100.00
12879;BME280;20617;49.476;10.986;2022-11-21T04:35:02;97218.53;;;6.31;100.00
12879;BME280;20617;49.476;10.986;2022-11-21T04:37:07;97212.53;;;6.30;100.00
12879;BME280;20617;49.476;10.986;2022-11-21T04:39:13;97205.69;;;6.29;100.00
12879;BME280;20617;49.476;10.986;2022-11-21T04:41:23;97215.63;;;6.39;100.00
12879;BME280;20617;49.476;10.986;2022-11-21T04:43:28;97212.66;;;6.27;100.00
12879;BME280;20617;49.476;10.986;2022-11-21T04:45:33;97219.25;;;6.34;100.00
12879;BME280;20617;49.476;10.986;2022-11-21T04:47:38;97215.81;;;6.34;100.00
12879;BME280;20617;49.476;10.986;2022-11-21T04:49:44;97219.88;;;6.40;100.00
12879;BME280;20617;49.476;10.986;2022-11-21T04:51:48;97208.56;;;6.42;100.00
12879;BME280;20617;49.476;10.986;2022-11-21T04:53:53;97221.06;;;6.32;100.00
12879;BME280;20617;49.476;10.986;2022-11-21T04:55:59;97214.59;;;6.43;100.00
12879;BME280;20617;49.476;10.986;2022-11-21T04:58:09;97217.38;;;6.38;100.00
12879;BME280;20617;49.476;10.986;2022-11-21T05:00:15;97209.53;;;6.40;100.00
12879;BME280;20617;49.476;10.986;2022-11-21T05:02:25;97219.97;;;6.38;100.00
12879;BME280;20617;49.476;10.986;2022-11-21T05:04:30;97214.97;;;6.33;100.00
12879;BME280;20617;49.476;10.986;2022-11-21T05:06:35;97205.56;;;6.32;100.00
12879;BME280;20617;49.476;10.986;2022-11-21T05:08:39;97205.69;;;6.29;100.00
12879;BME280;20617;49.476;10.986;2022-11-21T05:10:51;97204.75;;;6.30;100.00
12879;BME280;20617;49.476;10.986;2022-11-21T05:13:11;97208.00;;;6.35;100.00
12879;BME280;20617;49.476;10.986;2022-11-21T05:15:24;97208.31;;;6.28;100.00
12879;BME280;20617;49.476;10.986;2022-11-21T05:17:29;97216.03;;;6.29;100.00
12879;BME280;20617;49.476;10.986;2022-11-21T05:19:34;97210.72;;;6.32;100.00
12879;BME280;20617;49.476;10.986;2022-11-21T05:21:39;97207.63;;;6.45;100.00
12879;BME280;20617;49.476;10.986;2022-11-21T05:23:44;97202.44;;;6.45;100.00
12879;BME280;20617;49.476;10.986;2022-11-21T05:25:48;97200.00;;;6.42;100.00
12879;BME280;20617;49.476;10.986;2022-11-21T05:27:54;97200.66;;;6.26;100.00
12879;BME280;20617;49.476;10.986;2022-11-21T05:30:02;97209.63;;;6.18;100.00
12879;BME280;20617;49.476;10.986;2022-11-21T05:32:08;97208.97;;;6.12;100.00
12879;BME280;20617;49.476;10.986;2022-11-21T05:34:13;97210.13;;;6.05;100.00
12879;BME280;20617;49.476;10.986;2022-11-21T05:36:18;97214.50;;;6.03;100.00
12879;BME280;20617;49.476;10.986;2022-11-21T05:38:22;97216.31;;;6.01;100.00
12879;BME280;20617;49.476;10.986;2022-11-21T05:40:27;97215.63;;;5.96;100.00
12879;BME280;20617;49.476;10.986;2022-11-21T05:42:32;97224.88;;;5.80;100.00
12879;BME280;20617;49.476;10.986;2022-11-21T05:44:49;97227.72;;;5.74;100.00
12879;BME280;20617;49.476;10.986;2022-11-21T05:46:57;97236.69;;;5.63;100.00
12879;BME280;20617;49.476;10.986;2022-11-21T05:49:02;97229.47;;;5.73;100.00
12879;BME280;20617;49.476;10.986;2022-11-21T05:51:07;97222.47;;;5.75;100.00
12879;BME280;20617;49.476;10.986;2022-11-21T05:53:15;97219.47;;;5.64;100.00
12879;BME280;20617;49.476;10.986;2022-11-21T05:55:20;97222.97;;;5.63;100.00
12879;BME280;20617;49.476;10.986;2022-11-21T05:57:25;97230.00;;;5.59;100.00
12879;BME280;20617;49.476;10.986;2022-11-21T05:59:29;97228.25;;;5.60;100.00
12879;BME280;20617;49.476;10.986;2022-11-21T06:01:34;97223.19;;;5.57;100.00
12879;BME280;20617;49.476;10.986;2022-11-21T06:03:54;97229.31;;;5.54;100.00
12879;BME280;20617;49.476;10.986;2022-11-21T06:06:01;97236.59;;;5.44;100.00
12879;BME280;20617;49.476;10.986;2022-11-21T06:08:07;97224.41;;;5.48;100.00
12879;BME280;20617;49.476;10.986;2022-11-21T06:10:12;97227.69;;;5.52;100.00
12879;BME280;20617;49.476;10.986;2022-11-21T06:12:19;97226.06;;;5.49;100.00
12879;BME280;20617;49.476;10.986;2022-11-21T06:14:26;97224.28;;;5.51;100.00
12879;BME280;20617;49.476;10.986;2022-11-21T06:16:31;97225.19;;;5.50;100.00
12879;BME280;20617;49.476;10.986;2022-11-21T06:18:38;97228.47;;;5.54;100.00
12879;BME280;20617;49.476;10.986;2022-11-21T06:20:46;97231.66;;;5.60;100.00
12879;BME280;20617;49.476;10.986;2022-11-21T06:22:51;97238.41;;;5.64;100.00
12879;BME280;20617;49.476;10.986;2022-11-21T06:24:56;97241.75;;;5.66;100.00
12879;BME280;20617;49.476;10.986;2022-11-21T06:27:01;97239.13;;;5.68;100.00
12879;BME280;20617;49.476;10.986;2022-11-21T06:29:09;97237.09;;;5.76;100.00
12879;BME280;20617;49.476;10.986;2022-11-21T06:31:16;97239.72;;;5.75;100.00
12879;BME280;20617;49.476;10.986;2022-11-21T06:33:21;97238.09;;;5.72;100.00
12879;BME280;20617;49.476;10.986;2022-11-21T06:35:26;97234.63;;;5.73;100.00
12879;BME280;20617;49.476;10.986;2022-11-21T06:37:33;97242.00;;;5.82;100.00
12879;BME280;20617;49.476;10.986;2022-11-21T06:39:38;97237.47;;;5.87;100.00
12879;BME280;20617;49.476;10.986;2022-11-21T06:41:43;97242.59;;;5.89;100.00
12879;BME280;20617;49.476;10.986;2022-11-21T06:43:52;97252.97;;;5.87;100.00
12879;BME280;20617;49.476;10.986;2022-11-21T06:45:57;97247.81;;;5.87;100.00
12879;BME280;20617;49.476;10.986;2022-11-21T06:48:04;97247.16;;;5.82;100.00
12879;BME280;20617;49.476;10.986;2022-11-21T06:50:09;97253.34;;;5.78;100.00
12879;BME280;20617;49.476;10.986;2022-11-21T06:52:16;97255.09;;;5.78;100.00
12879;BME280;20617;49.476;10.986;2022-11-21T06:54:24;97258.75;;;5.72;100.00
12879;BME280;20617;49.476;10.986;2022-11-21T06:56:30;97258.59;;;5.77;100.00
12879;BME280;20617;49.476;10.986;2022-11-21T06:58:35;97255.44;;;5.68;100.00
12879;BME280;20617;49.476;10.986;2022-11-21T07:00:40;97253.03;;;5.64;100.00
12879;BME280;20617;49.476;10.986;2022-11-21T07:02:45;97252.97;;;5.65;100.00
12879;BME280;20617;49.476;10.986;2022-11-21T07:04:50;97264.16;;;5.66;100.00
12879;BME280;20617;49.476;10.986;2022-11-21T07:06:54;97258.88;;;5.69;100.00
12879;BME280;20617;49.476;10.986;2022-11-21T07:08:59;97272.56;;;5.71;100.00
12879;BME280;20617;49.476;10.986;2022-11-21T07:11:27;97266.00;;;5.62;100.00
12879;BME280;20617;49.476;10.986;2022-11-21T07:13:32;97267.53;;;5.68;100.00
12879;BME280;20617;49.476;10.986;2022-11-21T07:15:34;97274.47;;;5.66;100.00
12879;BME280;20617;49.476;10.986;2022-11-21T07:17:39;97276.34;;;5.62;100.00
12879;BME280;20617;49.476;10.986;2022-11-21T07:19:43;97269.59;;;5.58;100.00
12879;BME280;20617;49.476;10.986;2022-11-21T07:21:48;97275.53;;;5.60;100.00
12879;BME280;20617;49.476;10.986;2022-11-21T07:23:53;97276.94;;;5.69;100.00
12879;BME280;20617;49.476;10.986;2022-11-21T07:25:58;97275.50;;;5.62;100.00
12879;BME280;20617;49.476;10.986;2022-11-21T07:28:07;97276.25;;;5.64;100.00
12879;BME280;20617;49.476;10.986;2022-11-21T07:30:15;97279.72;;;5.64;100.00
12879;BME280;20617;49.476;10.986;2022-11-21T07:32:20;97274.13;;;5.53;100.00
12879;BME280;20617;49.476;10.986;2022-11-21T07:34:25;97281.22;;;5.47;100.00
12879;BME280;20617;49.476;10.986;2022-11-21T07:36:30;97273.72;;;5.40;100.00
12879;BME280;20617;49.476;10.986;2022-11-21T07:38:36;97275.22;;;5.46;100.00
12879;BME280;20617;49.476;10.986;2022-11-21T07:40:44;97271.88;;;5.44;100.00
12879;BME280;20617;49.476;10.986;2022-11-21T07:42:49;97280.03;;;5.55;100.00
12879;BME280;20617;49.476;10.986;2022-11-21T07:44:56;97276.69;;;5.53;100.00
12879;BME280;20617;49.476;10.986;2022-11-21T07:47:01;97273.56;;;5.45;100.00
12879;BME280;20617;49.476;10.986;2022-11-21T07:49:06;97274.03;;;5.55;100.00
12879;BME280;20617;49.476;10.986;2022-11-21T07:51:11;97280.00;;;5.57;100.00
12879;BME280;20617;49.476;10.986;2022-11-21T07:53:15;97275.06;;;5.51;100.00
12879;BME280;20617;49.476;10.986;2022-11-21T07:55:20;97281.63;;;5.59;100.00
12879;BME280;20617;49.476;10.986;2022-11-21T07:57:25;97284.66;;;5.71;100.00
12879;BME280;20617;49.476;10.986;2022-11-21T07:59:30;97283.56;;;5.76;100.00
12879;BME280;20617;49.476;10.986;2022-11-21T08:01:37;97285.16;;;5.79;100.00
12879;BME280;20617;49.476;10.986;2022-11-21T08:03:46;97286.97;;;5.77;100.00
12879;BME280;20617;49.476;10.986;2022-11-21T08:05:51;97290.31;;;5.79;100.00
12879;BME280;20617;49.476;10.986;2022-11-21T08:07:56;97283.56;;;5.76;100.00
12879;BME280;20617;49.476;10.986;2022-11-21T08:10:00;97287.09;;;5.74;100.00
12879;BME280;20617;49.476;10.986;2022-11-21T08:12:05;97290.75;;;5.68;100.00
12879;BME280;20617;49.476;10.986;2022-11-21T08:14:10;97284.44;;;5.75;100.00
12879;BME280;20617;49.476;10.986;2022-11-21T08:16:15;97295.72;;;5.73;100.00
12879;BME280;20617;49.476;10.986;2022-11-21T08:18:23;97287.38;;;5.66;100.00
12879;BME280;20617;49.476;10.986;2022-11-21T08:20:27;97287.34;;;5.67;100.00
12879;BME280;20617;49.476;10.986;2022-11-21T08:22:37;97301.13;;;5.66;100.00
12879;BME280;20617;49.476;10.986;2022-11-21T08:24:45;97295.09;;;5.67;100.00
12879;BME280;20617;49.476;10.986;2022-11-21T08:26:49;97302.66;;;5.72;100.00
12879;BME280;20617;49.476;10.986;2022-11-21T08:28:54;97297.44;;;5.74;100.00
12879;BME280;20617;49.476;10.986;2022-11-21T08:31:02;97303.25;;;5.79;100.00
12879;BME280;20617;49.476;10.986;2022-11-21T08:33:07;97301.31;;;5.84;100.00
12879;BME280;20617;49.476;10.986;2022-11-21T08:35:14;97290.16;;;5.83;100.00
12879;BME280;20617;49.476;10.986;2022-11-21T08:37:19;97294.50;;;5.83;100.00
12879;BME280;20617;49.476;10.986;2022-11-21T08:39:24;97289.25;;;5.84;100.00
12879;BME280;20617;49.476;10.986;2022-11-21T08:41:30;97284.88;;;5.86;100.00
12879;BME280;20617;49.476;10.986;2022-11-21T08:43:48;97286.47;;;5.90;100.00
12879;BME280;20617;49.476;10.986;2022-11-21T08:45:53;97282.03;;;5.94;100.00
12879;BME280;20617;49.476;10.986;2022-11-21T08:47:58;97287.00;;;5.99;100.00
12879;BME280;20617;49.476;10.986;2022-11-21T08:50:04;97286.00;;;6.03;100.00
12879;BME280;20617;49.476;10.986;2022-11-21T08:52:12;97283.41;;;6.03;100.00
12879;BME280;20617;49.476;10.986;2022-11-21T08:54:21;97284.13;;;6.06;100.00
12879;BME280;20617;49.476;10.986;2022-11-21T08:56:27;97276.38;;;6.06;100.00
12879;BME280;20617;49.476;10.986;2022-11-21T08:58:32;97271.09;;;6.09;100.00
12879;BME280;20617;49.476;10.986;2022-11-21T09:00:37;97281.38;;;6.11;100.00
12879;BME280;20617;49.476;10.986;2022-11-21T09:02:42;97284.00;;;6.09;100.00
12879;BME280;20617;49.476;10.986;2022-11-21T09:04:47;97289.25;;;6.08;100.00
12879;BME280;20617;49.476;10.986;2022-11-21T09:06:51;97295.97;;;6.12;100.00
12879;BME280;20617;49.476;10.986;2022-11-21T09:08:59;97287.31;;;6.13;100.00
12879;BME280;20617;49.476;10.986;2022-11-21T09:11:05;97282.75;;;6.20;100.00
12879;BME280;20617;49.476;10.986;2022-11-21T09:13:10;97285.84;;;6.28;100.00
12879;BME280;20617;49.476;10.986;2022-11-21T09:15:14;97284.88;;;6.30;100.00
12879;BME280;20617;49.476;10.986;2022-11-21T09:17:32;97279.84;;;6.27;100.00
12879;BME280;20617;49.476;10.986;2022-11-21T09:19:49;97281.78;;;6.43;100.00
12879;BME280;20617;49.476;10.986;2022-11-21T09:21:54;97276.53;;;6.46;100.00
12879;BME280;20617;49.476;10.986;2022-11-21T09:24:02;97271.72;;;6.57;100.00
12879;BME280;20617;49.476;10.986;2022-11-21T09:26:08;97273.34;;;6.60;100.00
12879;BME280;20617;49.476;10.986;2022-11-21T09:28:15;97265.47;;;6.63;100.00
12879;BME280;20617;49.476;10.986;2022-11-21T09:30:20;97267.72;;;6.70;100.00
12879;BME280;20617;49.476;10.986;2022-11-21T09:32:25;97275.31;;;6.75;100.00
12879;BME280;20617;49.476;10.986;2022-11-21T09:34:30;97273.28;;;6.82;100.00
12879;BME280;20617;49.476;10.986;2022-11-21T09:36:35;97276.66;;;6.84;100.00
12879;BME280;20617;49.476;10.986;2022-11-21T09:38:40;97275.16;;;6.98;100.00
12879;BME280;20617;49.476;10.986;2022-11-21T09:40:48;97281.28;;;7.16;100.00
12879;BME280;20617;49.476;10.986;2022-11-21T09:43:16;97273.00;;;7.27;100.00
12879;BME280;20617;49.476;10.986;2022-11-21T09:45:25;97257.22;;;7.52;100.00
12879;BME280;20617;49.476;10.986;2022-11-21T09:47:34;97261.00;;;7.64;100.00
12879;BME280;20617;49.476;10.986;2022-11-21T09:49:42;97254.53;;;7.72;100.00
12879;BME280;20617;49.476;10.986;2022-11-21T09:51:50;97256.22;;;7.74;100.00
12879;BME280;20617;49.476;10.986;2022-11-21T09:53:59;97255.75;;;7.65;100.00
12879;BME280;20617;49.476;10.986;2022-11-21T09:56:10;97259.66;;;7.74;100.00
12879;BME280;20617;49.476;10.986;2022-11-21T09:58:24;97258.91;;;7.72;100.00
12879;BME280;20617;49.476;10.986;2022-11-21T10:00:32;97264.78;;;7.57;100.00
12879;BME280;20617;49.476;10.986;2022-11-21T10:02:38;97265.31;;;7.44;100.00
12879;BME280;20617;49.476;10.986;2022-11-21T10:04:44;97265.84;;;7.34;100.00
12879;BME280;20617;49.476;10.986;2022-11-21T10:06:56;97261.41;;;7.36;100.00
12879;BME280;20617;49.476;10.986;2022-11-21T10:09:08;97269.41;;;7.31;100.00
12879;BME280;20617;49.476;10.986;2022-11-21T10:11:32;97258.56;;;7.42;100.00
12879;BME280;20617;49.476;10.986;2022-11-21T10:14:15;97269.88;;;7.58;100.00
12879;BME280;20617;49.476;10.986;2022-11-21T10:16:27;97253.41;;;7.78;100.00
12879;BME280;20617;49.476;10.986;2022-11-21T10:18:57;97239.50;;;7.81;100.00
12879;BME280;20617;49.476;10.986;2022-11-21T10:21:20;97239.41;;;7.82;100.00
12879;BME280;20617;49.476;10.986;2022-11-21T10:23:51;97241.97;;;8.01;100.00
12879;BME280;20617;49.476;10.986;2022-11-21T10:26:11;97233.97;;;8.06;100.00
12879;BME280;20617;49.476;10.986;2022-11-21T10:28:25;97231.84;;;8.14;100.00
12879;BME280;20617;49.476;10.986;2022-11-21T10:30:33;97231.31;;;8.25;100.00
12879;BME280;20617;49.476;10.986;2022-11-21T10:32:41;97237.31;;;8.08;100.00
12879;BME280;20617;49.476;10.986;2022-11-21T10:34:48;97223.16;;;8.15;100.00
12879;BME280;20617;49.476;10.986;2022-11-21T10:37:00;97228.91;;;8.39;100.00
12879;BME280;20617;49.476;10.986;2022-11-21T10:39:18;97233.72;;;8.47;100.00
12879;BME280;20617;49.476;10.986;2022-11-21T10:41:35;97234.25;;;8.53;100.00
12879;BME280;20617;49.476;10.986;2022-11-21T10:43:48;97226.00;;;8.45;100.00
12879;BME280;20617;49.476;10.986;2022-11-21T10:46:09;97221.13;;;8.39;100.00
12879;BME280;20617;49.476;10.986;2022-11-21T10:48:14;97219.50;;;8.19;100.00
12879;BME280;20617;49.476;10.986;2022-11-21T10:50:37;97216.69;;;8.24;100.00
12879;BME280;20617;49.476;10.986;2022-11-21T10:52:48;97219.88;;;8.29;100.00
12879;BME280;20617;49.476;10.986;2022-11-21T10:55:07;97218.56;;;8.37;100.00
12879;BME280;20617;49.476;10.986;2022-11-21T10:57:12;97227.22;;;8.38;100.00
12879;BME280;20617;49.476;10.986;2022-11-21T10:59:26;97219.44;;;8.38;100.00
12879;BME280;20617;49.476;10.986;2022-11-21T11:01:34;97221.75;;;8.44;100.00
12879;BME280;20617;49.476;10.986;2022-11-21T11:03:39;97219.22;;;8.60;100.00
12879;BME280;20617;49.476;10.986;2022-11-21T11:05:57;97210.44;;;8.63;100.00